Time;durP1;ratioP1;P1;durP2;ratioP2;P2;SDS_P1;SDS_P2;PMS_P1;PMS_P2;Temp;Humidity;BMP_temperature;BMP_pressure;BME280_temperature;BME280_humidity;BME280_pressure;Samples;Min_cycle;Max_cycle;Signal;HPM_P1;HPM_P2
2021/07/14 00:02:15;;;;;;;3.63;2.35;;;;;;;;;;5070182;28;20395;-83
2021/07/14 00:04:41;;;;;;;4.35;2.20;;;;;;;;;;5063580;28;20021;-79
2021/07/14 00:07:07;;;;;;;3.70;2.10;;;;;;;;;;5067038;28;20064;-79
2021/07/14 00:09:34;;;;;;;4.03;2.30;;;16.40;99.90;;;;;;5068086;28;20028;-79
2021/07/14 00:12:03;;;;;;;5.22;2.38;;;16.40;99.90;;;;;;5061872;28;20040;-77
2021/07/14 00:22:38;;;;;;;4.70;1.90;;;;;;;;;;5079919;28;20040;-80
2021/07/14 00:25:11;;;;;;;4.80;2.00;;;16.40;99.90;;;;;;5058862;28;20024;-79
2021/07/14 00:27:40;;;;;;;4.63;2.25;;;;;;;;;;5068402;28;20147;-79
2021/07/14 00:30:12;;;;;;;3.67;2.13;;;16.30;99.90;;;;;;5061268;28;20028;-79
2021/07/14 00:32:38;;;;;;;5.95;2.17;;;;;;;;;;5073249;28;20023;-79
2021/07/14 00:35:06;;;;;;;4.13;1.92;;;;;;;;;;5065169;28;20517;-77
2021/07/14 00:37:32;;;;;;;5.63;2.65;;;16.30;99.90;;;;;;5081579;28;20021;-79
2021/07/14 00:39:58;;;;;;;3.25;2.35;;;;;;;;;;5068720;28;20060;-79
2021/07/14 00:42:24;;;;;;;5.40;2.40;;;16.40;99.90;;;;;;5067059;28;20070;-78
2021/07/14 00:44:51;;;;;;;7.13;2.85;;;;;;;;;;5073832;28;20024;-79
2021/07/14 00:47:26;;;;;;;5.40;2.40;;;16.40;99.90;;;;;;5073719;28;20029;-79
2021/07/14 00:49:55;;;;;;;4.78;2.30;;;;;;;;;;5077551;28;20027;-80
2021/07/14 00:52:21;;;;;;;5.38;2.70;;;;;;;;;;5067411;28;20100;-79
2021/07/14 00:54:47;;;;;;;4.15;2.67;;;;;;;;;;5069157;28;20416;-80
2021/07/14 00:57:17;;;;;;;5.95;3.00;;;16.30;99.90;;;;;;5070331;28;20035;-80
2021/07/14 00:59:43;;;;;;;5.07;2.53;;;;;;;;;;5072673;28;20099;-79
2021/07/14 01:02:09;;;;;;;4.75;2.13;;;16.40;99.90;;;;;;5073995;28;20036;-78
2021/07/14 01:04:40;;;;;;;4.70;2.60;;;16.50;99.90;;;;;;5076379;28;20078;-79
2021/07/14 01:07:27;;;;;;;6.90;2.90;;;20.00;99.90;;;;;;5057884;28;20032;-79
2021/07/14 01:10:09;;;;;;;7.60;2.88;;;16.40;99.90;;;;;;5072225;28;20084;-79
2021/07/14 01:12:47;;;;;;;4.05;2.65;;;16.30;99.90;;;;;;5069255;28;20028;-77
2021/07/14 01:15:17;;;;;;;5.80;2.65;;;16.30;99.90;;;;;;5070000;28;20052;-80
2021/07/14 01:18:00;;;;;;;7.28;2.72;;;16.30;99.90;;;;;;5068730;28;20052;-79
2021/07/14 01:20:29;;;;;;;9.80;3.00;;;16.30;99.90;;;;;;5065286;28;20071;-79
2021/07/14 01:23:14;;;;;;;5.68;2.70;;;16.30;99.90;;;;;;5070687;28;20048;-78
2021/07/14 01:25:52;;;;;;;5.15;2.78;;;16.30;99.90;;;;;;5067269;28;20051;-80
2021/07/14 01:28:20;;;;;;;5.70;2.95;;;16.30;99.90;;;;;;5067059;28;20025;-80
2021/07/14 01:30:48;;;;;;;5.03;2.70;;;16.40;99.90;;;;;;5063699;28;20056;-78
2021/07/14 01:33:18;;;;;;;4.75;2.92;;;16.40;99.90;;;;;;5068058;28;20042;-79
2021/07/14 01:35:46;;;;;;;5.63;2.50;;;16.40;99.90;;;;;;5068626;28;20035;-81
2021/07/14 01:38:14;;;;;;;5.47;2.60;;;16.40;99.90;;;;;;5067207;28;20399;-79
2021/07/14 01:40:41;;;;;;;4.60;2.90;;;16.30;99.90;;;;;;5066121;28;20129;-80
2021/07/14 01:43:08;;;;;;;7.28;2.83;;;16.20;99.90;;;;;;5064886;28;20036;-80
2021/07/14 01:45:37;;;;;;;6.07;2.85;;;16.20;99.90;;;;;;5062971;28;21041;-80
2021/07/14 01:48:03;;;;;;;7.93;3.22;;;;;;;;;;5069285;28;20035;-79
2021/07/14 01:50:31;;;;;;;4.75;2.85;;;16.20;99.90;;;;;;5063166;28;20032;-79
2021/07/14 01:52:58;;;;;;;8.93;2.90;;;;;;;;;;5061290;28;20439;-78
2021/07/14 01:55:24;;;;;;;4.00;2.58;;;16.20;99.90;;;;;;5063977;28;20029;-79
2021/07/14 01:57:53;;;;;;;5.63;2.75;;;16.20;99.90;;;;;;5065820;28;20482;-78
2021/07/14 02:00:19;;;;;;;6.05;2.55;;;;;;;;;;5060220;28;20375;-79
2021/07/14 02:02:54;;;;;;;4.63;2.25;;;16.20;99.90;;;;;;5059500;28;20150;-77
2021/07/14 02:05:21;;;;;;;6.93;2.47;;;;;;;;;;5064401;28;20035;-80
2021/07/14 02:07:47;;;;;;;2.75;2.05;;;16.10;99.90;;;;;;5065605;28;20085;-80
2021/07/14 02:10:13;;;;;;;5.63;2.40;;;16.20;99.90;;;;;;5061656;28;20028;-79
2021/07/14 02:12:43;;;;;;;6.30;2.78;;;17.00;99.90;;;;;;5057253;28;20402;-78
2021/07/14 02:15:10;;;;;;;3.75;2.50;;;19.10;99.90;;;;;;5057974;28;20028;-81
2021/07/14 02:17:48;;;;;;;6.35;2.72;;;16.10;99.90;;;;;;5062221;28;20033;-79
2021/07/14 02:20:17;;;;;;;4.78;2.45;;;16.40;99.90;;;;;;5060073;28;20542;-78
2021/07/14 02:22:43;;;;;;;3.75;2.40;;;16.40;99.90;;;;;;5058749;28;20126;-79
2021/07/14 02:25:09;;;;;;;4.25;1.92;;;16.40;99.90;;;;;;5063449;28;20131;-79
2021/07/14 02:27:36;;;;;;;3.47;2.28;;;;;;;;;;5059545;28;20387;-81
2021/07/14 02:30:16;;;;;;;6.18;2.67;;;16.40;99.90;;;;;;5057346;28;20037;-79
2021/07/14 02:32:42;;;;;;;4.60;2.28;;;;;;;;;;5060342;28;20040;-79
2021/07/14 02:35:08;;;;;;;5.95;2.38;;;16.30;99.90;;;;;;5060884;28;20056;-79
2021/07/14 02:37:57;;;;;;;6.85;2.50;;;16.30;99.90;;;;;;5060274;28;20427;-79
2021/07/14 02:40:51;;;;;;;6.38;3.08;;;16.30;99.90;;;;;;5058180;28;20033;-77
2021/07/14 02:43:25;;;;;;;5.90;2.40;;;16.40;99.90;;;;;;5060371;28;20047;-79
2021/07/14 02:45:52;;;;;;;4.72;2.90;;;19.30;99.90;;;;;;5060650;28;20108;-79
2021/07/14 02:48:20;;;;;;;4.88;2.80;;;16.30;99.90;;;;;;5057041;28;20134;-78
2021/07/14 02:50:46;;;;;;;5.90;2.90;;;16.30;99.90;;;;;;5058471;28;20021;-80
2021/07/14 02:53:18;;;;;;;4.38;2.53;;;16.40;99.90;;;;;;5061384;28;20051;-79
2021/07/14 02:55:50;;;;;;;3.47;2.53;;;16.30;99.90;;;;;;5067577;28;20021;-79
2021/07/14 02:58:17;;;;;;;3.95;2.53;;;16.40;99.90;;;;;;5060103;28;20036;-79
2021/07/14 03:00:43;;;;;;;4.35;2.15;;;16.40;99.90;;;;;;5063397;28;20024;-81
2021/07/14 03:03:10;;;;;;;3.75;2.35;;;;;;;;;;5067921;28;20048;-80
2021/07/14 03:05:36;;;;;;;4.63;2.50;;;;;;;;;;5062267;28;20617;-80
2021/07/14 03:08:05;;;;;;;4.97;2.45;;;16.50;99.90;;;;;;5062835;28;20401;-80
2021/07/14 03:10:31;;;;;;;3.63;2.20;;;;;;;;;;5063463;28;20203;-80
2021/07/14 03:13:02;;;;;;;2.83;1.95;;;16.50;99.90;;;;;;5063353;28;20502;-80
2021/07/14 03:15:30;;;;;;;4.05;2.00;;;16.50;99.90;;;;;;5063247;28;20485;-81
2021/07/14 03:17:57;;;;;;;2.97;1.90;;;16.50;99.90;;;;;;5057672;28;20037;-79
2021/07/14 03:20:24;;;;;;;3.53;1.88;;;16.70;99.90;;;;;;5062358;28;20037;-80
2021/07/14 03:22:52;;;;;;;3.22;2.00;;;16.50;99.90;;;;;;5061935;28;20029;-78
2021/07/14 03:25:19;;;;;;;3.75;1.88;;;16.50;99.90;;;;;;5061050;28;20091;-78
2021/07/14 03:27:50;;;;;;;5.47;2.10;;;15.80;99.90;;;;;;5062116;28;20104;-77
2021/07/14 03:30:19;;;;;;;4.53;2.40;;;16.40;99.90;;;;;;5061435;28;20109;-77
2021/07/14 03:32:45;;;;;;;2.90;2.10;;;;;;;;;;5076804;28;20033;-78
2021/07/14 03:35:15;;;;;;;4.35;2.20;;;16.40;99.90;;;;;;5059854;28;20028;-79
2021/07/14 03:37:45;;;;;;;6.78;2.10;;;16.40;99.90;;;;;;5057865;28;20534;-79
2021/07/14 03:40:12;;;;;;;4.35;2.30;;;16.40;99.90;;;;;;5066406;28;20043;-80
2021/07/14 03:42:39;;;;;;;7.00;2.50;;;16.40;99.90;;;;;;5077646;28;20036;-78
2021/07/14 03:45:07;;;;;;;3.78;2.33;;;16.30;99.90;;;;;;5075304;28;20024;-79
2021/07/14 03:47:34;;;;;;;7.13;2.40;;;16.30;99.90;;;;;;5073178;28;20036;-79
2021/07/14 03:50:03;;;;;;;4.85;2.35;;;16.30;99.90;;;;;;5071076;28;20066;-79
2021/07/14 03:52:30;;;;;;;3.22;2.10;;;16.30;99.90;;;;;;5066733;28;20108;-79
2021/07/14 03:54:56;;;;;;;3.95;2.45;;;;;;;;;;5074456;28;20033;-80
2021/07/14 03:57:22;;;;;;;5.15;2.50;;;;;;;;;;5067893;28;20105;-79
2021/07/14 03:59:50;;;;;;;7.72;3.47;;;;;;;;;;5081493;28;20032;-82
2021/07/14 04:02:16;;;;;;;7.03;2.80;;;;;;;;;;5073141;28;20078;-77
2021/07/14 04:04:45;;;;;;;8.52;2.70;;;16.20;99.90;;;;;;5074376;28;20060;-80
2021/07/14 04:07:15;;;;;;;6.57;3.00;;;16.20;99.90;;;;;;5072125;28;20394;-80
2021/07/14 04:09:45;;;;;;;8.18;3.28;;;18.10;99.90;;;;;;5076540;28;20047;-80
2021/07/14 04:12:12;;;;;;;8.10;2.95;;;16.30;99.90;;;;;;5073926;28;20111;-76
2021/07/14 04:14:38;;;;;;;8.73;3.05;;;16.00;99.90;;;;;;5083965;28;20505;-78
2021/07/14 04:17:04;;;;;;;6.53;3.05;;;16.30;99.90;;;;;;5075173;28;20037;-77
2021/07/14 04:19:29;;;;;;;5.32;2.90;;;19.20;99.90;;;;;;5071052;28;20039;-79
2021/07/14 04:21:56;;;;;;;7.47;3.50;;;16.30;99.90;;;;;;5072053;28;20021;-78
2021/07/14 04:24:22;;;;;;;6.40;3.25;;;16.30;99.90;;;;;;5079652;28;20024;-79
2021/07/14 04:26:52;;;;;;;9.02;3.05;;;16.30;99.90;;;;;;5069570;28;20433;-78
2021/07/14 04:29:18;;;;;;;4.13;3.00;;;;;;;;;;5071152;28;20024;-81
2021/07/14 04:31:44;;;;;;;5.75;3.00;;;16.30;99.90;;;;;;5072270;28;20060;-77
2021/07/14 04:34:10;;;;;;;6.05;3.00;;;;;;;;;;5067486;28;20524;-79
2021/07/14 04:36:36;;;;;;;5.40;2.78;;;;;;;;;;5072135;28;20032;-79
2021/07/14 04:39:04;;;;;;;5.35;2.95;;;16.30;99.90;;;;;;5072537;28;20029;-80
2021/07/14 04:41:30;;;;;;;5.50;3.25;;;;;;;;;;5072379;28;20075;-81
2021/07/14 04:43:59;;;;;;;8.65;3.28;;;;;;;;;;5077032;28;20490;-83
2021/07/14 04:46:25;;;;;;;6.15;3.42;;;;;;;;;;5070303;28;20017;-80
2021/07/14 04:48:51;;;;;;;6.35;3.03;;;;;;;;;;5067245;28;20028;-80
2021/07/14 04:51:18;;;;;;;7.82;4.00;;;;;;;;;;5063974;28;20025;-79
2021/07/14 04:53:44;;;;;;;5.15;3.78;;;;;;;;;;5070035;28;20131;-81
2021/07/14 04:56:09;;;;;;;8.50;3.92;;;16.40;99.90;;;;;;5067670;28;20083;-84
2021/07/14 04:58:35;;;;;;;5.88;4.50;;;;;;;;;;5068473;28;20047;-78
2021/07/14 05:01:01;;;;;;;8.40;4.75;;;16.40;99.90;;;;;;5070305;28;20501;-80
2021/07/14 05:03:27;;;;;;;6.97;4.70;;;;;;;;;;5067979;28;20041;-80
2021/07/14 05:05:52;;;;;;;7.82;4.80;;;16.40;99.90;;;;;;5062571;28;20025;-80
2021/07/14 05:08:18;;;;;;;8.38;4.65;;;16.30;99.90;;;;;;5059490;28;20068;-78
2021/07/14 05:10:48;;;;;;;9.25;5.00;;;;;;;;;;5064485;28;20028;-77
2021/07/14 05:13:14;;;;;;;8.50;5.20;;;16.30;99.90;;;;;;5070921;28;20075;-79
2021/07/14 05:15:39;;;;;;;7.70;5.18;;;16.30;99.90;;;;;;5064807;28;20028;-80
2021/07/14 05:18:05;;;;;;;9.32;5.00;;;16.30;99.90;;;;;;5067773;28;20041;-81
2021/07/14 05:20:31;;;;;;;9.70;4.80;;;;;;;;;;5065988;28;20093;-80
2021/07/14 05:22:57;;;;;;;7.53;4.82;;;;;;;;;;5072478;28;20043;-80
2021/07/14 05:25:23;;;;;;;10.10;5.38;;;16.30;99.90;;;;;;5072171;28;20032;-81
2021/07/14 05:27:49;;;;;;;10.60;5.38;;;16.30;99.90;;;;;;5083053;28;20024;-80
2021/07/14 05:30:15;;;;;;;7.75;5.40;;;16.20;99.90;;;;;;5077147;28;20029;-79
2021/07/14 05:32:41;;;;;;;9.63;5.38;;;16.30;99.90;;;;;;5074206;28;20044;-80
2021/07/14 05:35:07;;;;;;;10.15;5.35;;;16.30;99.90;;;;;;5072191;28;20040;-81
2021/07/14 05:37:33;;;;;;;11.73;5.72;;;16.40;99.90;;;;;;5063907;28;20037;-80
2021/07/14 05:39:59;;;;;;;12.88;6.72;;;16.90;99.90;;;;;;5064909;28;20387;-80
2021/07/14 05:42:25;;;;;;;7.75;5.35;;;16.30;99.90;;;;;;5061369;28;20128;-81
2021/07/14 05:44:50;;;;;;;8.90;6.05;;;16.20;99.90;;;;;;5064480;28;20044;-80
2021/07/14 05:47:16;;;;;;;7.38;5.07;;;18.60;99.90;;;;;;5064338;28;22267;-80
2021/07/14 05:49:43;;;;;;;7.30;5.28;;;;;;;;;;5060416;28;20021;-79
2021/07/14 05:52:09;;;;;;;10.10;5.25;;;16.30;99.90;;;;;;5064456;28;20028;-80
2021/07/14 05:54:35;;;;;;;9.20;6.00;;;;;;;;;;5065307;28;20109;-80
2021/07/14 05:57:01;;;;;;;9.13;5.95;;;;;;;;;;5061249;28;20033;-76
2021/07/14 05:59:27;;;;;;;9.25;5.68;;;;;;;;;;5066024;28;20088;-79
2021/07/14 06:01:53;;;;;;;8.15;6.35;;;;;;;;;;5065673;28;20044;-80
2021/07/14 06:04:19;;;;;;;12.07;6.55;;;;;;;;;;5062756;28;20119;-76
2021/07/14 06:06:45;;;;;;;11.55;7.65;;;16.30;99.90;;;;;;5062175;28;20092;-80
2021/07/14 06:09:10;;;;;;;10.75;7.03;;;16.40;99.90;;;;;;5067405;28;20101;-79
2021/07/14 06:11:36;;;;;;;11.45;6.93;;;;;;;;;;5060787;28;20036;-78
2021/07/14 06:14:03;;;;;;;10.27;7.57;;;;;;;;;;5059312;28;20120;-78
2021/07/14 06:16:28;;;;;;;10.27;7.63;;;;;;;;;;5061485;28;20079;-77
2021/07/14 06:18:54;;;;;;;9.88;6.68;;;16.60;99.90;;;;;;5057142;28;20032;-77
2021/07/14 06:21:22;;;;;;;11.73;6.85;;;;;;;;;;5065728;28;20036;-78
2021/07/14 06:23:48;;;;;;;9.73;6.57;;;;;;;;;;5058406;28;20024;-79
2021/07/14 06:26:14;;;;;;;9.43;6.15;;;16.70;99.90;;;;;;5060684;28;20017;-78
2021/07/14 06:28:40;;;;;;;8.82;6.82;;;;;;;;;;5066620;28;20490;-78
2021/07/14 06:31:06;;;;;;;10.55;6.93;;;;;;;;;;5060749;28;20029;-77
2021/07/14 06:33:35;;;;;;;8.70;6.28;;;;;;;;;;5064317;28;20114;-80
2021/07/14 06:36:02;;;;;;;8.15;6.22;;;16.90;99.90;;;;;;5061788;28;20113;-76
2021/07/14 06:38:28;;;;;;;9.32;6.50;;;;;;;;;;5065518;28;20087;-78
2021/07/14 06:40:54;;;;;;;9.93;6.40;;;;;;;;;;5069340;28;20033;-79
2021/07/14 06:43:20;;;;;;;9.15;6.75;;;16.80;99.90;;;;;;5069915;28;20033;-79
2021/07/14 06:45:49;;;;;;;10.52;6.55;;;17.20;99.90;;;;;;5074619;28;20039;-79
2021/07/14 06:48:16;;;;;;;8.95;5.90;;;17.00;99.90;;;;;;5079741;28;20016;-79
2021/07/14 06:50:41;;;;;;;6.93;4.90;;;17.00;99.90;;;;;;5091010;28;20021;-79
2021/07/14 06:53:07;;;;;;;6.75;3.88;;;17.20;99.90;;;;;;5081957;28;20086;-80
2021/07/14 06:55:35;;;;;;;6.03;4.03;;;17.10;99.90;;;;;;5080297;28;20032;-79
2021/07/14 06:58:01;;;;;;;6.15;4.00;;;17.20;99.90;;;;;;5087051;28;20032;-79
2021/07/14 07:00:27;;;;;;;5.50;4.07;;;17.30;99.90;;;;;;5066817;28;20047;-79
2021/07/14 07:02:53;;;;;;;6.07;3.40;;;17.90;99.90;;;;;;5065533;28;20040;-79
2021/07/14 07:05:19;;;;;;;7.05;3.92;;;;;;;;;;5076215;28;20360;-79
2021/07/14 07:07:44;;;;;;;4.88;3.83;;;17.40;99.90;;;;;;5069953;28;20021;-78
2021/07/14 07:10:10;;;;;;;6.53;4.05;;;17.30;99.90;;;;;;5071607;28;20034;-79
2021/07/14 07:12:36;;;;;;;6.18;4.13;;;17.30;99.90;;;;;;5074934;28;20067;-79
2021/07/14 07:15:03;;;;;;;6.15;3.78;;;17.30;99.90;;;;;;5080412;28;20037;-78
2021/07/14 07:17:28;;;;;;;8.13;4.40;;;17.40;99.90;;;;;;5077770;28;20154;-78
2021/07/14 07:19:54;;;;;;;9.30;4.15;;;19.40;99.90;;;;;;5082371;28;20055;-77
2021/07/14 07:22:20;;;;;;;8.77;4.05;;;17.30;99.90;;;;;;5078929;28;20081;-80
2021/07/14 07:24:45;;;;;;;7.03;4.00;;;17.20;99.90;;;;;;5079301;28;20056;-78
2021/07/14 07:27:11;;;;;;;5.50;3.70;;;17.20;99.90;;;;;;5076463;28;20044;-80
2021/07/14 07:29:37;;;;;;;6.32;3.65;;;17.20;99.90;;;;;;5079126;28;20028;-77
2021/07/14 07:32:03;;;;;;;7.35;4.90;;;19.60;99.90;;;;;;5071902;28;20025;-80
2021/07/14 07:34:29;;;;;;;8.32;4.70;;;17.00;99.90;;;;;;5062908;28;20095;-82
2021/07/14 07:36:55;;;;;;;6.25;4.90;;;17.20;99.90;;;;;;5070978;28;20122;-80
2021/07/14 07:39:21;;;;;;;8.02;4.70;;;;;;;;;;5074467;28;20025;-80
2021/07/14 07:41:48;;;;;;;7.25;4.50;;;17.20;99.90;;;;;;5068066;28;20033;-79
2021/07/14 07:44:14;;;;;;;7.03;4.80;;;;;;;;;;5073821;28;20490;-79
2021/07/14 07:46:41;;;;;;;7.13;4.63;;;15.90;99.90;;;;;;5070197;28;20067;-79
2021/07/14 07:49:07;;;;;;;6.07;4.50;;;17.30;99.90;;;;;;5086893;28;20036;-79
2021/07/14 07:51:34;;;;;;;6.68;4.65;;;17.40;99.90;;;;;;5069108;28;20495;-79
2021/07/14 07:54:02;;;;;;;8.32;4.75;;;;;;;;;;5068644;28;20135;-79
2021/07/14 07:56:31;;;;;;;7.30;4.65;;;;;;;;;;5069759;28;20067;-79
2021/07/14 07:59:00;;;;;;;6.40;4.75;;;17.10;99.90;;;;;;5059372;28;20032;-80
2021/07/14 08:01:26;;;;;;;7.55;5.03;;;;;;;;;;5066720;28;20447;-80
2021/07/14 08:03:52;;;;;;;7.47;4.47;;;;;;;;;;5069939;28;20108;-80
2021/07/14 08:06:18;;;;;;;7.32;4.72;;;;;;;;;;5079857;28;20060;-79
2021/07/14 08:08:44;;;;;;;7.30;4.93;;;;;;;;;;5075284;28;20081;-80
2021/07/14 08:11:10;;;;;;;9.27;5.55;;;17.30;99.90;;;;;;5073821;28;20021;-82
2021/07/14 08:13:36;;;;;;;8.10;5.13;;;17.30;99.90;;;;;;5092055;28;20268;-80
2021/07/14 08:16:02;;;;;;;7.13;5.07;;;;;;;;;;5075242;28;20044;-78
2021/07/14 08:18:28;;;;;;;9.10;5.18;;;;;;;;;;5076620;28;20032;-80
2021/07/14 08:20:56;;;;;;;7.13;4.53;;;17.30;99.90;;;;;;5077460;28;20031;-80
2021/07/14 08:23:22;;;;;;;7.10;4.97;;;17.30;99.90;;;;;;5074851;28;20020;-79
2021/07/14 08:25:51;;;;;;;10.68;5.88;;;17.40;99.90;;;;;;5067590;28;20048;-80
2021/07/14 08:28:17;;;;;;;7.78;5.05;;;;;;;;;;5075033;28;20032;-79
2021/07/14 08:30:43;;;;;;;7.38;4.80;;;;;;;;;;5073156;28;20051;-81
2021/07/14 08:33:09;;;;;;;7.88;4.60;;;;;;;;;;5087712;28;20028;-80
2021/07/14 08:35:35;;;;;;;9.90;4.93;;;17.40;99.90;;;;;;5073338;28;20021;-79
2021/07/14 08:38:01;;;;;;;7.25;4.50;;;;;;;;;;5070155;28;20119;-80
2021/07/14 08:40:26;;;;;;;7.55;4.93;;;17.40;99.90;;;;;;5067868;28;20104;-79
2021/07/14 08:42:57;;;;;;;6.45;4.45;;;17.40;99.90;;;;;;5073143;28;20032;-79
2021/07/14 08:45:23;;;;;;;7.88;4.10;;;17.40;99.90;;;;;;5075053;28;20024;-79
2021/07/14 08:47:49;;;;;;;6.25;3.70;;;;;;;;;;5068497;28;20031;-80
2021/07/14 08:50:19;;;;;;;6.63;3.72;;;17.40;99.90;;;;;;5067770;28;20032;-80
2021/07/14 08:52:47;;;;;;;6.85;4.38;;;;;;;;;;5071569;28;20032;-78
2021/07/14 08:55:15;;;;;;;5.53;3.60;;;17.20;99.90;;;;;;5070637;28;20131;-79
2021/07/14 08:57:42;;;;;;;6.25;4.63;;;17.20;99.90;;;;;;5069196;28;20032;-79
2021/07/14 09:00:20;;;;;;;5.90;4.30;;;17.10;99.90;;;;;;5074272;28;20028;-80
2021/07/14 09:02:46;;;;;;;9.77;4.22;;;17.10;99.90;;;;;;5068086;28;20458;-79
2021/07/14 09:05:13;;;;;;;6.75;3.42;;;17.10;99.90;;;;;;5072978;28;20046;-81
2021/07/14 09:07:39;;;;;;;5.65;3.55;;;17.10;99.90;;;;;;5082408;28;20025;-79
2021/07/14 09:10:08;;;;;;;12.70;5.38;;;17.10;99.90;;;;;;5075598;28;20017;-78
2021/07/14 09:12:38;;;;;;;8.40;4.70;;;17.20;99.90;;;;;;5068181;28;20025;-80
2021/07/14 09:15:05;;;;;;;;;;;17.20;99.90;;;;;;5064487;28;20505;-81
2021/07/14 09:17:30;;;;;;;8.02;3.53;;;17.20;99.90;;;;;;5082168;28;19912;-80
2021/07/14 09:20:12;;;;;;;7.47;3.80;;;17.10;99.90;;;;;;5071590;28;20201;-81
2021/07/14 09:22:38;;;;;;;6.88;3.72;;;17.20;99.90;;;;;;5077310;28;20028;-79
2021/07/14 09:25:10;;;;;;;6.65;4.22;;;17.20;99.90;;;;;;5079630;28;20442;-79
2021/07/14 09:27:36;;;;;;;6.45;4.00;;;;;;;;;;5050377;28;20024;-79
2021/07/14 09:30:09;;;;;;;6.32;3.78;;;17.30;99.90;;;;;;5060486;28;20029;-80
2021/07/14 09:32:49;;;;;;;5.45;3.88;;;17.40;99.90;;;;;;5062971;28;20568;-78
2021/07/14 09:35:33;;;;;;;7.45;4.45;;;17.40;99.90;;;;;;5068689;28;20074;-78
2021/07/14 09:38:11;;;;;;;4.82;3.45;;;17.40;99.90;;;;;;5075787;28;20036;-80
2021/07/14 09:40:38;;;;;;;5.82;3.40;;;17.40;99.90;;;;;;5071653;28;20033;-82
2021/07/14 09:43:09;;;;;;;4.22;3.33;;;17.40;99.90;;;;;;5068827;28;20078;-78
2021/07/14 09:45:41;;;;;;;5.95;3.60;;;17.40;99.90;;;;;;5069980;28;20033;-79
2021/07/14 09:48:08;;;;;;;5.90;3.60;;;17.50;99.90;;;;;;5073865;28;20401;-79
2021/07/14 09:50:40;;;;;;;4.15;3.13;;;17.50;99.90;;;;;;5073984;28;20107;-79
2021/07/14 09:53:11;;;;;;;4.65;3.22;;;17.50;99.90;;;;;;5073982;28;20084;-79
2021/07/14 09:55:37;;;;;;;5.43;2.97;;;;;;;;;;5071478;28;20039;-79
2021/07/14 09:58:11;;;;;;;5.32;3.47;;;17.50;99.90;;;;;;5073560;28;20035;-79
2021/07/14 10:00:39;;;;;;;4.32;2.90;;;17.50;99.90;;;;;;5065680;28;20064;-80
2021/07/14 10:03:04;;;;;;;5.05;3.20;;;17.50;99.90;;;;;;5067372;28;20520;-77
2021/07/14 10:05:30;;;;;;;6.20;3.00;;;17.50;99.90;;;;;;5071054;28;20043;-79
2021/07/14 10:08:22;;;;;;;5.45;2.90;;;17.50;99.90;;;;;;5070211;28;20464;-79
2021/07/14 10:10:50;;;;;;;5.40;2.95;;;17.50;99.90;;;;;;5071353;28;20082;-79
2021/07/14 10:13:18;;;;;;;5.07;2.47;;;17.40;99.90;;;;;;5087565;28;20032;-78
2021/07/14 10:15:44;;;;;;;3.88;2.22;;;;;;;;;;5068469;28;20029;-80
2021/07/14 10:18:12;;;;;;;4.22;2.55;;;17.30;99.90;;;;;;5070562;28;20029;-79
2021/07/14 10:20:40;;;;;;;5.45;3.08;;;17.30;99.90;;;;;;5065463;28;20024;-79
2021/07/14 10:23:15;;;;;;;4.38;2.67;;;17.30;99.90;;;;;;5063094;28;20052;-79
2021/07/14 10:25:43;;;;;;;4.97;3.15;;;17.30;99.90;;;;;;5060717;28;20084;-80
2021/07/14 10:28:10;;;;;;;5.68;2.50;;;17.30;99.90;;;;;;5070796;28;20024;-80
2021/07/14 10:30:38;;;;;;;5.65;3.35;;;17.40;99.90;;;;;;5068964;28;20118;-81
2021/07/14 10:33:05;;;;;;;4.50;3.20;;;;;;;;;;5063483;28;20029;-80
2021/07/14 10:35:37;;;;;;;4.13;2.70;;;17.50;99.90;;;;;;5064931;28;20071;-79
2021/07/14 10:38:05;;;;;;;4.28;2.60;;;17.50;99.90;;;;;;5064247;28;20036;-79
2021/07/14 10:40:31;;;;;;;4.75;2.53;;;;;;;;;;5059635;28;20025;-79
2021/07/14 10:42:57;;;;;;;4.15;2.45;;;;;;;;;;5069403;28;20033;-78
2021/07/14 10:45:23;;;;;;;6.43;2.88;;;;;;;;;;5055923;28;20835;-79
2021/07/14 10:47:50;;;;;;;4.10;2.53;;;17.30;99.90;;;;;;5066021;28;20028;-79
2021/07/14 10:50:18;;;;;;;4.45;2.28;;;17.30;99.90;;;;;;5070191;28;20039;-78
2021/07/14 10:52:45;;;;;;;4.07;2.35;;;;;;;;;;5068519;28;20733;-80
2021/07/14 10:55:17;;;;;;;4.55;3.00;;;17.30;99.90;;;;;;5073567;28;20674;-78
2021/07/14 10:57:46;;;;;;;3.03;2.20;;;17.30;99.90;;;;;;5057213;28;20033;-80
2021/07/14 11:00:12;;;;;;;4.00;2.17;;;17.20;99.90;;;;;;5062956;28;20509;-77
2021/07/14 11:02:50;;;;;;;2.65;1.70;;;17.30;99.90;;;;;;5082784;28;20105;-79
2021/07/14 11:05:30;;;;;;;4.35;2.05;;;17.30;99.90;;;;;;5070195;28;20017;-81
2021/07/14 11:07:57;;;;;;;2.58;1.80;;;17.30;99.90;;;;;;5061009;28;20490;-79
2021/07/14 11:10:34;;;;;;;3.75;1.42;;;17.40;99.90;;;;;;5064823;28;20513;-78
2021/07/14 11:13:26;;;;;;;4.00;1.88;;;17.50;99.90;;;;;;5067694;28;20027;-79
2021/07/14 11:15:51;;;;;;;1.98;1.23;;;17.50;99.90;;;;;;5066366;28;20041;-80
2021/07/14 11:18:29;;;;;;;2.83;1.48;;;17.60;99.90;;;;;;5070941;28;20083;-78
2021/07/14 11:20:57;;;;;;;2.38;1.48;;;17.50;99.90;;;;;;5062212;28;20513;-79
2021/07/14 11:23:25;;;;;;;2.25;1.70;;;17.50;99.90;;;;;;5066434;28;20043;-80
2021/07/14 11:25:55;;;;;;;2.13;1.52;;;17.40;99.90;;;;;;5065046;28;20741;-81
2021/07/14 11:28:22;;;;;;;4.25;1.88;;;17.30;99.90;;;;;;5063311;28;20048;-79
2021/07/14 11:30:56;;;;;;;3.55;1.73;;;17.20;99.90;;;;;;5066863;28;20040;-79
2021/07/14 11:33:22;;;;;;;2.63;1.67;;;;;;;;;;5061346;28;20032;-80
2021/07/14 11:35:57;;;;;;;2.53;1.77;;;17.20;99.90;;;;;;5060974;28;20021;-78
2021/07/14 11:39:00;;;;;;;2.75;1.90;;;17.20;99.90;;;;;;5073113;28;20024;-81
2021/07/14 11:41:27;;;;;;;3.15;1.75;;;17.20;99.90;;;;;;5061387;28;20041;-79
2021/07/14 11:43:55;;;;;;;3.47;2.00;;;17.10;99.90;;;;;;5066064;28;20044;-79
2021/07/14 11:46:29;;;;;;;2.80;1.70;;;17.20;99.90;;;;;;5062265;28;20025;-79
2021/07/14 11:49:06;;;;;;;3.22;2.22;;;17.10;99.90;;;;;;5059377;28;20125;-78
2021/07/14 11:51:37;;;;;;;4.95;1.88;;;17.10;99.90;;;;;;5064962;28;20024;-79
2021/07/14 11:54:19;;;;;;;4.68;2.28;;;17.10;99.90;;;;;;5066688;28;20342;-80
2021/07/14 11:56:50;;;;;;;4.88;2.50;;;;;;;;;;5070780;28;20060;-79
2021/07/14 11:59:26;;;;;;;3.67;1.80;;;17.20;99.90;;;;;;5065404;28;20035;-79
2021/07/14 12:02:01;;;;;;;3.00;1.77;;;17.00;99.90;;;;;;5071974;28;20062;-79
2021/07/14 12:04:27;;;;;;;2.45;1.75;;;16.90;99.90;;;;;;5058118;28;20278;-79
2021/07/14 12:07:00;;;;;;;3.42;2.00;;;16.90;99.90;;;;;;5061212;28;20064;-77
2021/07/14 12:09:28;;;;;;;4.90;2.20;;;16.80;99.90;;;;;;5055897;28;20127;-79
2021/07/14 12:11:59;;;;;;;3.75;1.70;;;16.70;99.90;;;;;;5055169;28;20024;-77
2021/07/14 12:14:32;;;;;;;3.03;1.80;;;16.70;99.90;;;;;;5061784;28;20461;-77
2021/07/14 12:16:58;;;;;;;5.15;1.77;;;;;;;;;;5064307;28;20490;-78
2021/07/14 12:19:44;;;;;;;2.78;2.10;;;16.70;99.90;;;;;;5060969;28;20052;-78
2021/07/14 12:22:17;;;;;;;2.55;1.70;;;16.60;99.90;;;;;;5058268;28;20052;-78
2021/07/14 12:24:51;;;;;;;2.30;1.60;;;16.70;99.90;;;;;;5073005;28;20033;-78
2021/07/14 12:27:29;;;;;;;3.30;1.40;;;16.60;99.90;;;;;;5074594;28;20051;-79
2021/07/14 12:30:08;;;;;;;3.33;1.52;;;16.70;99.90;;;;;;5064627;28;20025;-78
2021/07/14 12:32:52;;;;;;;2.33;1.20;;;16.70;99.90;;;;;;5072583;28;20120;-77
2021/07/14 12:35:29;;;;;;;2.58;1.48;;;16.80;99.90;;;;;;5075418;28;20426;-77
2021/07/14 12:37:56;;;;;;;1.73;1.20;;;16.80;99.90;;;;;;5070234;28;20033;-78
2021/07/14 12:40:34;;;;;;;2.15;1.40;;;16.90;99.90;;;;;;5085788;28;20034;-79
2021/07/14 12:43:02;;;;;;;1.48;1.25;;;16.90;99.90;;;;;;5068737;28;20171;-79
2021/07/14 12:45:29;;;;;;;1.48;1.08;;;;;;;;;;5072583;28;20031;-80
2021/07/14 12:47:55;;;;;;;1.65;1.15;;;17.00;99.90;;;;;;5071640;28;20052;-80
2021/07/14 12:50:23;;;;;;;1.65;1.05;;;17.00;99.90;;;;;;5067919;28;20025;-78
2021/07/14 12:52:54;;;;;;;2.72;1.10;;;17.00;99.90;;;;;;5066900;28;20028;-79
2021/07/14 12:55:20;;;;;;;3.17;1.10;;;17.00;99.90;;;;;;5062459;28;20404;-78
2021/07/14 12:57:51;;;;;;;2.10;1.20;;;17.00;99.90;;;;;;5060854;28;20115;-77
2021/07/14 13:00:21;;;;;;;2.40;1.05;;;16.90;99.90;;;;;;5067643;28;20139;-78
2021/07/14 13:03:02;;;;;;;2.45;1.25;;;16.90;99.90;;;;;;5076475;28;20059;-79
2021/07/14 13:05:29;;;;;;;2.15;1.35;;;16.90;99.90;;;;;;5068152;28;20110;-79
2021/07/14 13:08:07;;;;;;;1.75;1.00;;;18.40;99.90;;;;;;5067541;28;20306;-79
2021/07/14 13:10:34;;;;;;;1.00;0.90;;;16.90;99.90;;;;;;5069452;28;20021;-78
2021/07/14 13:13:00;;;;;;;2.42;1.30;;;;;;;;;;5063548;28;20107;-77
2021/07/14 13:15:29;;;;;;;1.40;0.95;;;16.90;99.90;;;;;;5053668;28;20087;-76
2021/07/14 13:18:04;;;;;;;1.10;0.98;;;16.80;99.90;;;;;;5059768;28;20032;-77
2021/07/14 13:20:41;;;;;;;3.25;0.82;;;16.90;99.90;;;;;;5061946;28;20029;-77
2021/07/14 13:23:09;;;;;;;0.77;0.70;;;16.80;99.90;;;;;;5062700;28;20497;-77
2021/07/14 13:25:48;;;;;;;2.42;0.90;;;16.80;99.90;;;;;;5057036;28;20043;-77
2021/07/14 13:28:18;;;;;;;0.77;0.65;;;17.30;99.90;;;;;;5062500;28;20055;-75
2021/07/14 13:31:00;;;;;;;1.58;0.90;;;16.80;99.90;;;;;;5056450;28;20016;-77
2021/07/14 13:33:25;;;;;;;1.42;0.80;;;16.70;99.90;;;;;;5059677;28;21878;-78